KLEB/LEB METAR and TAF weather

Enter ICAO airport designator
Station Type Date Time Source
KLEB METAR 2022/12/04 04:53 UTC NOAA

KLEB 040453Z AUTO 28010G17KT 260V330 10SM BKN060 04/M06 A3000 RMK AO2 SLP160 T00391061 401220033


Station Type Date Time Source
KLEB Decoded METAR 2022/12/04 04:53 UTC NOAA

LEBANON MUNICIPAL AIRPORT, NH, United States (KLEB) 43-38N 072-18W 171M
Dec 03, 2022 - 11:53 PM EST / 2022.12.04 0453 UTC
Wind: from the W (280 degrees) at 12 MPH (10 KT) gusting to 20 MPH (17 KT) (direction variable):0
Visibility: 10 mile(s):0
Sky conditions: mostly cloudy
Temperature: 39.0 F (3.9 C)
Dew Point: 21.0 F (-6.1 C)
Relative Humidity: 48%
Pressure (altimeter): 30 in. Hg (1015 hPa)
ob: KLEB 040453Z AUTO 28010G17KT 260V330 10SM BKN060 04/M06 A3000 RMK AO2 SLP160 T00391061 401220033
cycle: 5

Station Type Date Time Source
KLEB TAF 2022/12/04 01:03 UTC NOAA

TAF
AMD KLEB 040100Z 0401/0424 25012G22KT P6SM OVC040
FM040400 28015KT P6SM FEW040
FM041400 31007KT P6SM SCT040

Example: see airport list